createdAt,value
2019-02-07T00:01:09.513Z,97.393799
2019-02-07T00:02:19.026Z,97.454834
2019-02-07T00:03:28.570Z,97.454834
2019-02-07T00:04:38.108Z,97.454834
2019-02-07T00:05:47.625Z,97.351074
2019-02-07T00:06:57.146Z,97.351074
2019-02-07T00:08:06.706Z,97.351074
2019-02-07T00:09:16.271Z,97.241211
2019-02-07T00:10:25.813Z,97.241211
2019-02-07T00:11:35.363Z,97.137451
2019-02-07T00:12:44.916Z,97.137451
2019-02-07T00:13:54.455Z,97.033691
2019-02-07T00:15:03.981Z,97.033691
2019-02-07T00:16:13.535Z,97.033691
2019-02-07T00:17:23.042Z,97.033691
2019-02-07T00:18:32.608Z,96.923828
2019-02-07T00:19:42.164Z,96.923828
2019-02-07T00:20:51.694Z,97.033691
2019-02-07T00:22:01.258Z,97.137451
2019-02-07T00:23:10.789Z,97.137451
2019-02-07T00:24:20.338Z,97.241211
2019-02-07T00:25:29.862Z,97.393799
2019-02-07T00:26:39.482Z,97.454834
2019-02-07T00:27:49.016Z,97.454834
2019-02-07T00:28:58.559Z,97.607422
2019-02-07T00:30:08.101Z,97.711182
2019-02-07T00:31:17.656Z,97.814941
2019-02-07T00:32:27.185Z,97.924805
2019-02-07T00:33:36.719Z,97.924805
2019-02-07T00:34:46.240Z,97.88208
2019-02-07T00:35:55.797Z,97.98584
2019-02-07T00:37:05.366Z,97.98584
2019-02-07T00:38:14.848Z,97.98584
2019-02-07T00:39:24.407Z,97.98584
2019-02-07T00:40:33.942Z,98.0896
2019-02-07T00:41:43.540Z,98.0896
2019-02-07T00:42:53.083Z,98.0896
2019-02-07T00:44:02.662Z,97.98584
2019-02-07T00:45:12.176Z,97.98584
2019-02-07T00:46:21.708Z,98.0896
2019-02-07T00:47:31.273Z,98.0896
2019-02-07T00:48:40.752Z,98.0896
2019-02-07T00:49:50.332Z,98.0896
2019-02-07T00:50:59.876Z,98.0896
2019-02-07T00:52:09.402Z,98.0896
2019-02-07T00:53:18.926Z,98.199463
2019-02-07T00:54:28.479Z,98.303223
2019-02-07T00:55:38.003Z,98.413086
2019-02-07T00:56:47.552Z,98.516846
2019-02-07T00:57:57.077Z,98.516846
2019-02-07T00:59:06.642Z,98.620605
2019-02-07T01:00:16.164Z,98.730469
2019-02-07T01:01:25.695Z,98.730469
2019-02-07T01:02:35.247Z,98.834229
2019-02-07T01:03:45.793Z,98.834229
2019-02-07T01:04:55.344Z,98.937988
2019-02-07T01:06:04.959Z,98.937988
2019-02-07T01:07:14.400Z,98.791504
2019-02-07T01:08:23.922Z,98.791504
2019-02-07T01:09:33.463Z,98.895264
2019-02-07T01:10:42.990Z,98.791504
2019-02-07T01:11:52.518Z,98.791504
2019-02-07T01:13:02.031Z,98.791504
2019-02-07T01:14:11.614Z,98.791504
2019-02-07T01:15:21.140Z,98.791504
2019-02-07T01:16:30.656Z,98.681641
2019-02-07T01:17:40.156Z,98.638916
2019-02-07T01:18:49.688Z,98.638916
2019-02-07T01:19:59.273Z,98.535156
2019-02-07T01:21:08.814Z,98.535156
2019-02-07T01:22:18.373Z,98.535156
2019-02-07T01:23:27.897Z,98.535156
2019-02-07T01:24:37.423Z,98.425293
2019-02-07T01:25:47.026Z,98.425293
2019-02-07T01:26:56.574Z,98.425293
2019-02-07T01:28:06.165Z,98.535156
2019-02-07T01:29:15.688Z,98.535156
2019-02-07T01:30:25.279Z,98.535156
2019-02-07T01:31:34.807Z,98.382568
2019-02-07T01:32:44.331Z,98.382568
2019-02-07T01:33:53.886Z,98.278809
2019-02-07T01:35:03.420Z,98.278809
2019-02-07T01:36:12.995Z,98.168945
2019-02-07T01:37:22.544Z,98.065186
2019-02-07T01:38:32.121Z,98.065186
2019-02-07T01:39:41.692Z,98.065186
2019-02-07T01:40:51.248Z,98.065186
2019-02-07T01:42:00.794Z,97.961426
2019-02-07T01:43:10.323Z,97.961426
2019-02-07T01:44:19.839Z,97.961426
2019-02-07T01:45:29.431Z,97.961426
2019-02-07T01:46:38.996Z,97.851562
2019-02-07T01:47:48.682Z,97.851562
2019-02-07T01:48:58.237Z,97.851562
2019-02-07T01:50:07.795Z,97.747803
2019-02-07T01:51:17.324Z,97.747803
2019-02-07T01:52:26.866Z,97.595215
2019-02-07T01:53:36.386Z,97.644043
2019-02-07T01:54:45.981Z,97.595215
2019-02-07T01:55:55.523Z,97.491455
2019-02-07T01:57:05.089Z,97.491455
2019-02-07T01:58:14.595Z,97.491455
2019-02-07T01:59:24.139Z,97.387695
2019-02-07T02:00:33.706Z,97.387695
2019-02-07T02:01:43.245Z,97.387695
2019-02-07T02:02:53.770Z,97.387695
2019-02-07T02:04:03.340Z,97.387695
2019-02-07T02:05:12.855Z,97.43042
2019-02-07T02:06:22.418Z,97.53418
2019-02-07T02:07:31.944Z,97.53418
2019-02-07T02:08:41.552Z,97.53418
2019-02-07T02:09:51.121Z,97.53418
2019-02-07T02:11:00.612Z,97.53418
2019-02-07T02:12:10.174Z,97.644043
2019-02-07T02:13:19.755Z,97.644043
2019-02-07T02:14:29.320Z,97.644043
2019-02-07T02:15:38.860Z,97.644043
2019-02-07T02:16:48.445Z,97.644043
2019-02-07T02:17:57.916Z,97.644043
2019-02-07T02:19:07.469Z,97.644043
2019-02-07T02:20:17.019Z,97.595215
2019-02-07T02:21:26.542Z,97.595215
2019-02-07T02:22:36.098Z,97.595215
2019-02-07T02:23:45.703Z,97.595215
2019-02-07T02:24:55.182Z,97.595215
2019-02-07T02:26:04.763Z,97.595215
2019-02-07T02:27:14.323Z,97.595215
2019-02-07T02:28:23.881Z,97.491455
2019-02-07T02:29:33.415Z,97.491455
2019-02-07T02:30:42.956Z,97.491455
2019-02-07T02:31:52.461Z,97.387695
2019-02-07T02:33:01.992Z,97.387695
2019-02-07T02:34:11.515Z,97.277832
2019-02-07T02:35:22.130Z,97.277832
2019-02-07T02:36:31.593Z,97.277832
2019-02-07T02:37:41.119Z,97.277832
2019-02-07T02:38:50.694Z,97.277832
2019-02-07T02:40:00.370Z,97.277832
2019-02-07T02:41:09.839Z,97.277832
2019-02-07T02:42:19.344Z,97.32666
2019-02-07T02:43:28.866Z,97.43042
2019-02-07T02:44:38.451Z,97.43042
2019-02-07T02:45:48.003Z,97.644043
2019-02-07T02:46:57.584Z,97.644043
2019-02-07T02:48:07.180Z,97.747803
2019-02-07T02:49:16.696Z,97.747803
2019-02-07T02:50:26.238Z,97.747803
2019-02-07T02:51:35.869Z,97.747803
2019-02-07T02:52:45.409Z,97.644043
2019-02-07T02:53:54.978Z,97.644043
2019-02-07T02:55:04.609Z,97.644043
2019-02-07T02:56:14.072Z,97.644043
2019-02-07T02:57:23.627Z,97.644043
2019-02-07T02:58:33.192Z,97.53418
2019-02-07T02:59:42.758Z,97.53418
2019-02-07T03:00:52.341Z,97.53418
2019-02-07T03:02:01.996Z,97.53418
2019-02-07T03:03:11.529Z,97.644043
2019-02-07T03:04:21.138Z,97.53418
2019-02-07T03:05:30.698Z,97.576904
2019-02-07T03:06:40.248Z,97.576904
2019-02-07T03:07:49.772Z,97.473145
2019-02-07T03:08:59.384Z,97.473145
2019-02-07T03:10:08.862Z,97.473145
2019-02-07T03:11:18.390Z,97.473145
2019-02-07T03:12:27.943Z,97.369385
2019-02-07T03:13:37.563Z,97.369385
2019-02-07T03:14:47.128Z,97.412109
2019-02-07T03:15:56.646Z,97.369385
2019-02-07T03:17:06.213Z,97.369385
2019-02-07T03:18:15.770Z,97.369385
2019-02-07T03:19:25.328Z,97.369385
2019-02-07T03:20:34.843Z,97.369385
2019-02-07T03:21:44.437Z,97.473145
2019-02-07T03:22:53.930Z,97.576904
2019-02-07T03:24:03.527Z,97.576904
2019-02-07T03:25:13.110Z,97.729492
2019-02-07T03:26:22.672Z,97.686768
2019-02-07T03:27:32.213Z,97.833252
2019-02-07T03:28:41.813Z,97.790527
2019-02-07T03:29:51.301Z,97.900391
2019-02-07T03:31:00.846Z,97.943115
2019-02-07T03:32:10.425Z,98.046875
2019-02-07T03:33:19.968Z,98.156738
2019-02-07T03:34:29.584Z,98.156738
2019-02-07T03:35:39.181Z,98.260498
2019-02-07T03:36:48.671Z,98.364258
2019-02-07T03:37:58.235Z,98.364258
2019-02-07T03:39:07.808Z,98.364258
2019-02-07T03:40:17.392Z,98.364258
2019-02-07T03:41:27.002Z,98.364258
2019-02-07T03:42:36.461Z,98.364258
2019-02-07T03:43:46.015Z,98.364258
2019-02-07T03:44:55.575Z,98.364258
2019-02-07T03:46:05.162Z,98.364258
2019-02-07T03:47:14.738Z,98.364258
2019-02-07T03:48:24.337Z,98.364258
2019-02-07T03:49:33.848Z,98.364258
2019-02-07T03:50:44.361Z,98.260498
2019-02-07T03:51:53.926Z,98.260498
2019-02-07T03:53:03.466Z,98.217773
2019-02-07T03:54:13.030Z,98.10791
2019-02-07T03:55:22.586Z,98.10791
2019-02-07T03:56:32.101Z,98.00415
2019-02-07T03:57:41.656Z,98.00415
2019-02-07T03:58:51.269Z,98.00415
2019-02-07T04:00:00.784Z,97.900391
2019-02-07T04:01:10.437Z,97.900391
2019-02-07T04:02:19.867Z,97.790527
2019-02-07T04:03:29.453Z,97.790527
2019-02-07T04:04:39.015Z,97.790527
2019-02-07T04:05:48.557Z,97.790527
2019-02-07T04:06:58.106Z,97.790527
2019-02-07T04:08:07.776Z,97.686768
2019-02-07T04:09:17.275Z,97.53418
2019-02-07T04:10:26.825Z,97.53418
2019-02-07T04:11:36.382Z,97.53418
2019-02-07T04:12:45.960Z,97.43042
2019-02-07T04:13:55.466Z,97.32666
2019-02-07T04:15:05.012Z,97.216797
2019-02-07T04:16:15.512Z,97.259521
2019-02-07T04:17:24.169Z,97.155762
2019-02-07T04:18:33.759Z,97.155762
2019-02-07T04:19:43.387Z,97.052002
2019-02-07T04:20:52.877Z,97.052002
2019-02-07T04:22:02.430Z,96.942139
2019-02-07T04:23:12.055Z,97.052002
2019-02-07T04:24:21.638Z,96.942139
2019-02-07T04:25:31.149Z,96.942139
2019-02-07T04:26:40.677Z,96.942139
2019-02-07T04:27:50.231Z,96.942139
2019-02-07T04:28:59.786Z,96.942139
2019-02-07T04:30:09.297Z,96.942139
2019-02-07T04:31:18.875Z,96.942139
2019-02-07T04:32:28.427Z,96.942139
2019-02-07T04:33:37.947Z,96.942139
2019-02-07T04:34:47.550Z,96.942139
2019-02-07T04:35:57.075Z,97.052002
2019-02-07T04:37:06.600Z,97.052002
2019-02-07T04:38:16.214Z,97.155762
2019-02-07T04:39:25.751Z,97.155762
2019-02-07T04:40:35.249Z,97.155762
2019-02-07T04:41:44.803Z,97.155762
2019-02-07T04:42:54.327Z,97.155762
2019-02-07T04:44:03.915Z,97.155762
2019-02-07T04:45:13.415Z,97.155762
2019-02-07T04:46:26.856Z,97.155762
2019-02-07T04:47:32.563Z,97.155762
2019-02-07T04:48:42.174Z,97.155762
2019-02-07T04:49:51.698Z,97.052002
2019-02-07T04:51:01.252Z,97.052002
2019-02-07T04:52:10.751Z,97.155762
2019-02-07T04:53:20.308Z,97.155762
2019-02-07T04:54:29.861Z,97.155762
2019-02-07T04:55:39.452Z,97.155762
2019-02-07T04:56:49.091Z,97.155762
2019-02-07T04:57:58.558Z,97.259521
2019-02-07T04:59:08.098Z,97.259521
2019-02-07T05:00:17.695Z,97.259521
2019-02-07T05:01:27.231Z,97.259521
2019-02-07T05:02:36.770Z,97.259521
2019-02-07T05:03:46.338Z,97.259521
2019-02-07T05:04:55.856Z,97.259521
2019-02-07T05:06:05.423Z,97.155762
2019-02-07T05:07:15.152Z,97.155762
2019-02-07T05:08:24.689Z,97.052002
2019-02-07T05:09:34.391Z,96.984863
2019-02-07T05:10:43.897Z,96.984863
2019-02-07T05:11:53.437Z,96.777344
2019-02-07T05:13:03.011Z,96.66748
2019-02-07T05:14:12.537Z,96.350098
2019-02-07T05:15:22.076Z,96.142578
2019-02-07T05:16:39.050Z,95.97168
2019-02-07T05:17:42.083Z,95.654297
2019-02-07T05:18:51.598Z,95.544434
2019-02-07T05:20:01.131Z,95.654297
2019-02-07T05:21:10.642Z,96.289062
2019-02-07T05:22:20.165Z,96.392822
2019-02-07T05:23:29.677Z,96.185303
2019-02-07T05:24:39.213Z,95.97168
2019-02-07T05:25:48.719Z,95.86792
2019-02-07T05:26:59.252Z,95.697021
2019-02-07T05:28:08.793Z,95.483398
2019-02-07T05:29:18.288Z,95.379639
2019-02-07T05:30:27.839Z,95.269775
2019-02-07T05:31:37.349Z,95.3125
2019-02-07T05:32:46.949Z,95.3125
2019-02-07T05:33:56.458Z,95.3125
2019-02-07T05:35:06.023Z,95.3125
2019-02-07T05:36:15.550Z,95.3125
2019-02-07T05:37:25.072Z,95.147705
2019-02-07T05:38:34.575Z,95.147705
2019-02-07T05:39:44.472Z,95.147705
2019-02-07T05:40:54.688Z,95.147705
2019-02-07T05:42:04.291Z,95.251465
2019-02-07T05:43:14.282Z,95.251465
2019-02-07T05:44:23.825Z,95.355225
2019-02-07T05:45:33.346Z,95.465088
2019-02-07T05:46:50.602Z,95.465088
2019-02-07T05:47:53.355Z,95.568848
2019-02-07T05:49:02.939Z,95.568848
2019-02-07T05:50:12.553Z,95.568848
2019-02-07T05:51:22.120Z,95.568848
2019-02-07T05:52:31.598Z,95.465088
2019-02-07T05:53:41.168Z,95.397949
2019-02-07T05:54:50.678Z,95.397949
2019-02-07T05:56:00.214Z,95.397949
2019-02-07T05:57:09.734Z,95.397949
2019-02-07T05:58:19.293Z,95.294189
2019-02-07T05:59:28.813Z,95.294189
2019-02-07T06:00:38.359Z,95.294189
2019-02-07T06:01:47.876Z,95.233154
2019-02-07T06:02:57.428Z,95.019531
2019-02-07T06:04:06.952Z,94.909668
2019-02-07T06:05:16.485Z,94.909668
2019-02-07T06:06:26.010Z,95.019531
2019-02-07T06:07:35.574Z,95.019531
2019-02-07T06:08:45.141Z,95.062256
2019-02-07T06:09:54.669Z,95.166016
2019-02-07T06:11:04.182Z,95.275879
2019-02-07T06:12:13.684Z,95.275879
2019-02-07T06:13:23.743Z,95.166016
2019-02-07T06:14:33.264Z,95.166016
2019-02-07T06:15:42.773Z,95.275879
2019-02-07T06:17:02.176Z,95.166016
2019-02-07T06:18:02.821Z,95.062256
2019-02-07T06:19:12.333Z,95.062256
2019-02-07T06:20:21.849Z,95.062256
2019-02-07T06:21:31.395Z,95.166016
2019-02-07T06:22:40.977Z,95.166016
2019-02-07T06:23:50.493Z,95.275879
2019-02-07T06:25:00.000Z,95.379639
2019-02-07T06:26:09.566Z,95.379639
2019-02-07T06:27:19.075Z,95.483398
2019-02-07T06:28:28.609Z,95.440674
2019-02-07T06:29:38.124Z,95.336914
2019-02-07T06:30:47.664Z,95.123291
2019-02-07T06:31:57.198Z,95.019531
2019-02-07T06:33:06.702Z,94.909668
2019-02-07T06:34:16.204Z,94.805908
2019-02-07T06:35:26.724Z,94.63501
2019-02-07T06:36:36.271Z,94.63501
2019-02-07T06:37:45.798Z,94.73877
2019-02-07T06:38:55.316Z,94.592285
2019-02-07T06:40:04.848Z,94.53125
2019-02-07T06:41:14.382Z,94.421387
2019-02-07T06:42:23.899Z,94.317627
2019-02-07T06:43:33.428Z,94.207764
2019-02-07T06:44:42.955Z,94.317627
2019-02-07T06:45:52.490Z,94.207764
2019-02-07T06:47:12.992Z,93.994141
2019-02-07T06:48:12.549Z,93.994141
2019-02-07T06:49:22.068Z,94.104004
2019-02-07T06:50:31.581Z,93.994141
2019-02-07T06:51:41.128Z,94.104004
2019-02-07T06:52:50.641Z,94.207764
2019-02-07T06:54:00.174Z,94.165039
2019-02-07T06:55:09.685Z,94.165039
2019-02-07T06:56:19.237Z,94.165039
2019-02-07T06:57:28.742Z,94.165039
2019-02-07T06:58:38.264Z,94.274902
2019-02-07T06:59:47.798Z,94.274902
2019-02-07T07:00:57.320Z,94.165039
2019-02-07T07:02:06.931Z,94.165039
2019-02-07T07:03:16.550Z,94.165039
2019-02-07T07:04:26.126Z,94.018555
2019-02-07T07:05:35.726Z,94.018555
2019-02-07T07:06:45.346Z,93.914795
2019-02-07T07:07:54.902Z,94.018555
2019-02-07T07:09:04.476Z,93.914795
2019-02-07T07:10:14.052Z,93.87207
2019-02-07T07:11:23.656Z,93.97583
2019-02-07T07:12:33.191Z,93.87207
2019-02-07T07:13:42.706Z,93.762207
2019-02-07T07:14:52.234Z,93.658447
2019-02-07T07:16:01.745Z,93.658447
2019-02-07T07:17:11.350Z,93.615723
2019-02-07T07:18:21.870Z,93.719482
2019-02-07T07:19:31.389Z,93.719482
2019-02-07T07:20:41.906Z,93.682861
2019-02-07T07:21:51.445Z,93.469238
2019-02-07T07:23:00.962Z,93.212891
2019-02-07T07:24:10.494Z,93.109131
2019-02-07T07:25:20.052Z,92.791748
2019-02-07T07:26:29.632Z,92.63916
2019-02-07T07:27:39.218Z,92.5354
2019-02-07T07:28:48.726Z,91.790771
2019-02-07T07:29:58.240Z,91.85791
2019-02-07T07:31:07.770Z,91.85791
2019-02-07T07:32:17.339Z,92.028809
2019-02-07T07:33:26.855Z,92.132568
2019-02-07T07:34:36.386Z,91.815186
2019-02-07T07:35:45.930Z,91.18042
2019-02-07T07:36:55.464Z,91.247559
2019-02-07T07:38:04.972Z,91.668701
2019-02-07T07:39:14.496Z,91.204834
2019-02-07T07:40:23.997Z,91.418457
2019-02-07T07:41:33.571Z,91.05835
2019-02-07T07:42:43.087Z,90.740967
2019-02-07T07:43:52.617Z,90.2771
2019-02-07T07:45:02.139Z,90.2771
2019-02-07T07:46:11.681Z,89.642334
2019-02-07T07:47:21.232Z,90.765381
2019-02-07T07:48:31.725Z,90.344238
2019-02-07T07:49:41.265Z,89.813232
2019-02-07T07:50:50.820Z,90.087891
2019-02-07T07:52:00.426Z,89.349365
2019-02-07T07:53:09.892Z,88.928223
2019-02-07T07:54:20.513Z,89.202881
2019-02-07T07:55:28.970Z,88.256836
2019-02-07T07:56:39.502Z,87.835693
2019-02-07T07:57:49.027Z,87.518311
2019-02-07T07:58:58.541Z,87.304688
2019-02-07T08:00:08.070Z,87.408447
2019-02-07T08:01:17.600Z,88.427734
2019-02-07T08:02:27.182Z,87.371826
2019-02-07T08:03:36.707Z,89.019775
2019-02-07T08:04:46.217Z,87.860107
2019-02-07T08:05:55.729Z,87.329102
2019-02-07T08:07:05.276Z,87.188721
2019-02-07T08:08:14.796Z,87.29248
2019-02-07T08:09:24.329Z,85.986328
2019-02-07T08:10:33.869Z,86.303711
2019-02-07T08:11:43.561Z,85.424805
2019-02-07T08:12:53.099Z,85.632324
2019-02-07T08:14:02.635Z,86.895752
2019-02-07T08:15:12.167Z,86.541748
2019-02-07T08:16:21.725Z,87.487793
2019-02-07T08:17:31.491Z,87.280273
2019-02-07T08:18:42.016Z,87.030029
2019-02-07T08:19:51.585Z,86.083984
2019-02-07T08:21:01.106Z,84.04541
2019-02-07T08:22:10.645Z,82.818604
2019-02-07T08:23:20.162Z,84.14917
2019-02-07T08:24:29.665Z,84.04541
2019-02-07T08:25:39.183Z,82.36084
2019-02-07T08:26:48.717Z,82.15332
2019-02-07T08:27:58.279Z,82.641602
2019-02-07T08:29:07.795Z,82.324219
2019-02-07T08:30:17.312Z,83.966064
2019-02-07T08:31:26.835Z,83.087158
2019-02-07T08:32:36.389Z,82.421875
2019-02-07T08:33:45.910Z,80.218506
2019-02-07T08:34:55.421Z,79.47998
2019-02-07T08:36:04.938Z,80.706787
2019-02-07T08:37:14.476Z,80.078125
2019-02-07T08:38:23.994Z,78.814697
2019-02-07T08:39:33.514Z,80.981445
2019-02-07T08:40:43.066Z,78.222656
2019-02-07T08:41:52.602Z,77.587891
2019-02-07T08:43:02.131Z,77.34375
2019-02-07T08:44:13.942Z,76.055908
2019-02-07T08:45:21.190Z,76.159668
2019-02-07T08:46:30.686Z,75.286865
2019-02-07T08:47:40.247Z,74.029541
2019-02-07T08:48:49.759Z,73.297119
2019-02-07T08:49:59.267Z,73.260498
2019-02-07T08:51:08.804Z,72.497559
2019-02-07T08:52:18.344Z,71.453857
2019-02-07T08:53:27.850Z,71.105957
2019-02-07T08:54:37.378Z,70.654297
2019-02-07T08:55:46.889Z,70.52002
2019-02-07T08:56:56.397Z,69.366455
2019-02-07T08:58:05.967Z,69.335938
2019-02-07T08:59:15.482Z,69.024658
2019-02-07T09:00:25.013Z,68.994141
2019-02-07T09:01:34.527Z,68.438721
2019-02-07T09:02:51.489Z,68.304443
2019-02-07T09:03:54.601Z,66.949463
2019-02-07T09:05:04.112Z,67.126465
2019-02-07T09:06:13.663Z,66.571045
2019-02-07T09:07:23.218Z,65.325928
2019-02-07T09:08:32.726Z,64.984131
2019-02-07T09:09:42.252Z,64.715576
2019-02-07T09:10:51.771Z,63.256836
2019-02-07T09:12:01.293Z,62.530518
2019-02-07T09:13:10.832Z,62.841797
2019-02-07T09:14:20.363Z,63.018799
2019-02-07T09:15:29.892Z,63.330078
2019-02-07T09:16:39.482Z,62.738037
2019-02-07T09:17:49.028Z,63.256836
2019-02-07T09:18:58.563Z,63.287354
2019-02-07T09:20:08.074Z,63.391113
2019-02-07T09:21:17.606Z,64.532471
2019-02-07T09:22:27.120Z,63.671875
2019-02-07T09:23:36.685Z,62.554932
2019-02-07T09:24:46.202Z,63.360596
2019-02-07T09:25:55.709Z,63.983154
2019-02-07T09:27:05.218Z,63.330078
2019-02-07T09:28:14.768Z,63.092041
2019-02-07T09:29:24.314Z,61.816406
2019-02-07T09:30:33.832Z,60.882568
2019-02-07T09:31:43.357Z,60.443115
2019-02-07T09:32:52.903Z,60.754395
2019-02-07T09:34:02.436Z,60.235596
2019-02-07T09:35:11.940Z,60.339355
2019-02-07T09:36:21.465Z,60.961914
2019-02-07T09:37:30.997Z,60.028076
2019-02-07T09:38:40.551Z,60.546875
2019-02-07T09:39:50.069Z,62.133789
2019-02-07T09:40:59.588Z,63.330078
2019-02-07T09:42:09.110Z,63.745117
2019-02-07T09:43:18.643Z,62.573242
2019-02-07T09:44:29.171Z,63.305664
2019-02-07T09:45:38.749Z,62.341309
2019-02-07T09:46:48.237Z,61.297607
2019-02-07T09:47:57.768Z,60.961914
2019-02-07T09:49:09.008Z,60.546875
2019-02-07T09:50:16.825Z,60.308838
2019-02-07T09:51:26.354Z,60.546875
2019-02-07T09:52:35.877Z,59.924316
2019-02-07T09:53:45.410Z,60.650635
2019-02-07T09:54:54.987Z,60.028076
2019-02-07T09:56:04.563Z,60.961914
2019-02-07T09:57:14.081Z,60.827637
2019-02-07T09:58:23.586Z,60.595703
2019-02-07T09:59:33.103Z,60.046387
2019-02-07T10:00:42.643Z,60.076904
2019-02-07T10:01:52.163Z,59.838867
2019-02-07T10:03:01.704Z,60.565186
2019-02-07T10:04:11.222Z,60.357666
2019-02-07T10:05:20.807Z,60.668945
2019-02-07T10:06:30.420Z,60.772705
2019-02-07T10:07:40.047Z,59.399414
2019-02-07T10:08:49.678Z,59.783936
2019-02-07T10:09:59.336Z,59.576416
2019-02-07T10:11:09.984Z,59.680176
2019-02-07T10:12:19.560Z,60.119629
2019-02-07T10:13:29.139Z,60.638428
2019-02-07T10:14:38.754Z,61.157227
2019-02-07T10:15:48.399Z,60.638428
2019-02-07T10:16:58.066Z,60.534668
2019-02-07T10:18:07.644Z,60.638428
2019-02-07T10:19:17.219Z,61.291504
2019-02-07T10:20:26.841Z,61.676025
2019-02-07T10:21:36.476Z,62.121582
2019-02-07T10:22:46.064Z,63.085938
2019-02-07T10:23:55.647Z,63.812256
2019-02-07T10:25:05.300Z,62.878418
2019-02-07T10:26:14.902Z,64.178467
2019-02-07T10:27:24.461Z,65.008545
2019-02-07T10:28:34.058Z,65.112305
2019-02-07T10:29:43.673Z,64.520264
2019-02-07T10:30:53.355Z,66.601562
2019-02-07T10:32:02.886Z,65.484619
2019-02-07T10:33:12.413Z,66.912842
2019-02-07T10:34:21.909Z,65.899658
2019-02-07T10:35:31.426Z,68.041992
2019-02-07T10:36:40.954Z,68.457031
2019-02-07T10:37:50.475Z,68.981934
2019-02-07T10:39:00.004Z,69.262695
2019-02-07T10:40:11.080Z,68.084717
2019-02-07T10:41:19.056Z,67.224121
2019-02-07T10:42:28.580Z,67.462158
2019-02-07T10:43:38.112Z,68.157959
2019-02-07T10:44:47.632Z,67.297363
2019-02-07T10:45:57.178Z,67.370605
2019-02-07T10:47:06.695Z,67.266846
2019-02-07T10:48:16.229Z,67.132568
2019-02-07T10:49:25.752Z,66.925049
2019-02-07T10:50:35.285Z,67.028809
2019-02-07T10:51:44.811Z,67.340088
2019-02-07T10:52:54.346Z,67.095947
2019-02-07T10:54:03.860Z,67.858887
2019-02-07T10:55:13.385Z,68.133545
2019-02-07T10:56:22.916Z,67.272949
2019-02-07T10:57:32.449Z,66.96167
2019-02-07T10:58:41.970Z,66.412354
2019-02-07T10:59:51.551Z,66.210938
2019-02-07T11:01:01.077Z,66.07666
2019-02-07T11:02:10.598Z,65.454102
2019-02-07T11:03:20.132Z,65.350342
2019-02-07T11:04:29.712Z,64.727783
2019-02-07T11:05:39.201Z,65.06958
2019-02-07T11:06:48.720Z,65.588379
2019-02-07T11:07:58.247Z,65.795898
2019-02-07T11:09:07.772Z,65.9729
2019-02-07T11:10:17.288Z,65.454102
2019-02-07T11:11:26.828Z,65.765381
2019-02-07T11:12:36.355Z,65.557861
2019-02-07T11:13:45.909Z,67.346191
2019-02-07T11:14:55.458Z,66.485596
2019-02-07T11:16:04.986Z,66.455078
2019-02-07T11:17:15.505Z,65.496826
2019-02-07T11:18:25.044Z,64.978027
2019-02-07T11:19:34.576Z,64.63623
2019-02-07T11:20:44.126Z,64.324951
2019-02-07T11:21:53.669Z,64.196777
2019-02-07T11:23:03.206Z,64.196777
2019-02-07T11:24:12.723Z,63.647461
2019-02-07T11:25:22.244Z,63.647461
2019-02-07T11:26:31.786Z,63.232422
2019-02-07T11:27:42.412Z,63.262939
2019-02-07T11:28:50.803Z,63.989258
2019-02-07T11:30:00.355Z,64.16626
2019-02-07T11:31:09.865Z,63.95874
2019-02-07T11:32:19.401Z,64.404297
2019-02-07T11:33:28.946Z,64.605713
2019-02-07T11:34:38.458Z,64.508057
2019-02-07T11:35:47.974Z,64.678955
2019-02-07T11:36:57.513Z,64.782715
2019-02-07T11:38:07.026Z,64.27002
2019-02-07T11:39:16.549Z,64.16626
2019-02-07T11:40:26.092Z,64.0625
2019-02-07T11:41:35.621Z,64.16626
2019-02-07T11:42:45.151Z,64.373779
2019-02-07T11:43:54.673Z,64.27002
2019-02-07T11:45:04.192Z,63.85498
2019-02-07T11:46:13.725Z,63.928223
2019-02-07T11:47:23.245Z,63.616943
2019-02-07T11:48:32.761Z,62.762451
2019-02-07T11:49:42.286Z,63.250732
2019-02-07T11:50:51.822Z,62.115479
2019-02-07T11:52:01.346Z,62.219238
2019-02-07T11:53:10.888Z,61.572266
2019-02-07T11:54:20.461Z,61.029053
2019-02-07T11:55:29.991Z,60.821533
2019-02-07T11:56:39.545Z,60.070801
2019-02-07T11:57:49.078Z,60.174561
2019-02-07T11:58:58.603Z,59.967041
2019-02-07T12:00:08.135Z,59.118652
2019-02-07T12:01:17.680Z,59.014893
2019-02-07T12:02:27.205Z,58.703613
2019-02-07T12:03:36.724Z,58.807373
2019-02-07T12:04:46.240Z,58.807373
2019-02-07T12:05:55.772Z,58.294678
2019-02-07T12:07:05.305Z,58.294678
2019-02-07T12:08:14.848Z,58.190918
2019-02-07T12:09:24.389Z,57.678223
2019-02-07T12:10:33.930Z,57.775879
2019-02-07T12:11:43.573Z,58.087158
2019-02-07T12:12:54.087Z,58.398438
2019-02-07T12:14:03.623Z,58.36792
2019-02-07T12:15:13.156Z,57.751465
2019-02-07T12:16:22.712Z,58.1604
2019-02-07T12:17:32.226Z,57.751465
2019-02-07T12:18:41.741Z,57.647705
2019-02-07T12:19:51.279Z,55.767822
2019-02-07T12:21:00.816Z,56.903076
2019-02-07T12:22:10.364Z,57.006836
2019-02-07T12:23:19.894Z,56.488037
2019-02-07T12:24:29.415Z,55.975342
2019-02-07T12:25:38.951Z,56.079102
2019-02-07T12:26:48.487Z,56.103516
2019-02-07T12:27:58.089Z,56.414795
2019-02-07T12:29:07.624Z,56.719971
2019-02-07T12:30:17.161Z,57.23877
2019-02-07T12:31:26.699Z,56.719971
2019-02-07T12:32:36.244Z,56.616211
2019-02-07T12:33:45.768Z,56.92749
2019-02-07T12:34:55.283Z,57.23877
2019-02-07T12:36:04.800Z,57.855225
2019-02-07T12:37:14.343Z,57.751465
2019-02-07T12:38:23.875Z,58.1604
2019-02-07T12:39:33.406Z,57.543945
2019-02-07T12:40:42.952Z,58.47168
2019-02-07T12:41:52.514Z,56.616211
2019-02-07T12:43:02.060Z,56.92749
2019-02-07T12:44:11.564Z,57.543945
2019-02-07T12:45:21.121Z,58.782959
2019-02-07T12:46:30.638Z,58.984375
2019-02-07T12:47:40.199Z,60.528564
2019-02-07T12:48:49.714Z,61.663818
2019-02-07T12:49:59.240Z,61.871338
2019-02-07T12:51:08.783Z,61.871338
2019-02-07T12:52:18.337Z,61.560059
2019-02-07T12:53:27.870Z,61.663818
2019-02-07T12:54:37.397Z,61.529541
2019-02-07T12:55:52.138Z,61.328125
2019-02-07T12:56:57.467Z,61.328125
2019-02-07T12:58:07.021Z,61.224365
2019-02-07T12:59:16.541Z,60.809326
2019-02-07T13:00:26.067Z,60.400391
2019-02-07T13:01:35.602Z,60.50415
2019-02-07T13:02:45.185Z,60.913086
2019-02-07T13:03:54.730Z,61.328125
2019-02-07T13:05:04.264Z,61.431885
2019-02-07T13:06:13.810Z,62.176514
2019-02-07T13:07:23.375Z,62.487793
2019-02-07T13:08:32.916Z,62.591553
2019-02-07T13:09:42.446Z,62.591553
2019-02-07T13:10:51.982Z,62.896729
2019-02-07T13:12:01.571Z,63.134766
2019-02-07T13:13:11.125Z,63.134766
2019-02-07T13:14:20.650Z,63.238525
2019-02-07T13:15:30.188Z,63.342285
2019-02-07T13:16:39.732Z,63.543701
2019-02-07T13:17:51.959Z,63.751221